Time;durP1;ratioP1;P1;durP2;ratioP2;P2;SDS_P1;SDS_P2;PMS_P1;PMS_P2;Temp;Humidity;BMP_temperature;BMP_pressure;BME280_temperature;BME280_humidity;BME280_pressure;Samples;Min_cycle;Max_cycle;Signal;HPM_P1;HPM_P2
2021/09/03 00:00:05;;;;;;;7.15;5.45;;;;;;;23.18;41.56;101882.59;5010241;28;20054;-73
2021/09/03 00:02:31;;;;;;;8.27;4.93;;;;;;;23.13;41.06;101880.31;5009448;28;20050;-73
2021/09/03 00:04:58;;;;;;;8.18;5.20;;;;;;;23.11;41.05;101890.69;5023082;28;20107;-73
2021/09/03 00:07:25;;;;;;;8.52;5.47;;;;;;;23.09;41.30;101881.66;5010493;28;20538;-73
2021/09/03 00:09:51;;;;;;;8.82;5.28;;;;;;;23.07;41.58;101886.47;5010144;28;20493;-73
2021/09/03 00:12:18;;;;;;;7.25;5.13;;;;;;;23.05;41.60;101882.16;5009946;28;20665;-73
2021/09/03 00:14:44;;;;;;;6.80;5.32;;;;;;;23.03;41.52;101884.19;5010172;28;20137;-73
2021/09/03 00:17:11;;;;;;;8.25;5.70;;;;;;;22.99;41.52;101872.56;5008859;28;20133;-73
2021/09/03 00:19:37;;;;;;;8.00;5.55;;;;;;;22.98;41.12;101878.25;5010225;28;20096;-73
2021/09/03 00:22:04;;;;;;;6.22;5.15;;;;;;;22.95;41.37;101886.88;5008898;28;20129;-73
2021/09/03 00:24:31;;;;;;;8.18;5.13;;;;;;;22.92;41.20;101884.44;5025309;28;20088;-73
2021/09/03 00:26:57;;;;;;;8.02;5.32;;;;;;;22.90;41.26;101884.56;5009553;28;20133;-73
2021/09/03 00:29:24;;;;;;;8.02;5.38;;;;;;;22.88;41.72;101877.47;5010154;28;20133;-73
2021/09/03 00:31:50;;;;;;;7.18;5.25;;;;;;;22.87;41.43;101878.50;5010275;28;20141;-73
2021/09/03 00:34:17;;;;;;;8.25;5.35;;;;;;;22.85;41.55;101881.41;5018933;28;20088;-73
2021/09/03 00:36:46;;;;;;;7.45;5.40;;;;;;;22.84;41.16;101876.91;5027708;28;20042;-73
2021/09/03 00:39:12;;;;;;;6.97;5.25;;;;;;;22.82;41.37;101872.53;5010579;28;20176;-73
2021/09/03 00:41:39;;;;;;;8.60;5.38;;;;;;;22.81;41.84;101879.13;5010233;28;20100;-73
2021/09/03 00:44:06;;;;;;;6.88;5.18;;;;;;;22.80;41.40;101871.84;5009827;28;20449;-73
2021/09/03 00:46:32;;;;;;;8.70;5.53;;;;;;;22.79;41.48;101876.53;5009304;28;20450;-73
2021/09/03 00:48:59;;;;;;;7.63;5.07;;;;;;;22.76;41.91;101868.50;5009752;28;20137;-73
2021/09/03 00:51:26;;;;;;;7.75;5.60;;;;;;;22.75;41.55;101864.00;5009516;28;20121;-73
2021/09/03 00:53:53;;;;;;;7.78;5.22;;;;;;;22.74;41.35;101870.56;5003426;28;20081;-73
2021/09/03 00:56:19;;;;;;;8.35;5.68;;;;;;;22.73;41.53;101868.81;5008845;28;20083;-73
2021/09/03 00:58:46;;;;;;;7.00;5.45;;;;;;;22.70;42.16;101869.13;5009471;28;20662;-73
2021/09/03 01:01:12;;;;;;;7.80;5.50;;;;;;;22.68;41.47;101866.50;5009669;28;20073;-73
2021/09/03 01:03:39;;;;;;;6.53;5.10;;;;;;;22.66;41.56;101868.53;5013447;28;20045;-73
2021/09/03 01:06:06;;;;;;;7.22;5.40;;;;;;;22.65;41.63;101866.81;5015078;28;20054;-73
2021/09/03 01:08:33;;;;;;;8.02;5.15;;;;;;;22.63;41.66;101866.09;5013248;28;20049;-73
2021/09/03 01:11:00;;;;;;;7.00;5.22;;;;;;;22.62;42.07;101864.38;5013432;28;20053;-73
2021/09/03 01:13:29;;;;;;;7.35;5.00;;;;;;;22.60;42.18;101862.78;5013212;28;20091;-74
2021/09/03 01:15:55;;;;;;;6.85;5.15;;;;;;;22.58;41.92;101857.38;5012787;28;20054;-73
2021/09/03 01:18:22;;;;;;;8.40;5.40;;;;;;;22.55;41.70;101860.50;5013287;28;20060;-73
2021/09/03 01:20:48;;;;;;;8.25;5.35;;;;;;;22.52;41.79;101855.25;5013132;28;20133;-72
2021/09/03 01:23:15;;;;;;;8.93;5.53;;;;;;;22.50;42.16;101853.66;5013357;28;20081;-73
2021/09/03 01:25:42;;;;;;;9.50;5.63;;;;;;;22.47;41.88;101852.09;5012791;28;20056;-73
2021/09/03 01:28:09;;;;;;;7.97;5.35;;;;;;;22.46;42.19;101850.34;5013031;28;20128;-73
2021/09/03 01:30:35;;;;;;;9.15;5.25;;;;;;;22.44;41.79;101848.75;5013163;28;20124;-73
2021/09/03 01:33:02;;;;;;;7.00;4.95;;;;;;;22.42;42.05;101840.59;5012785;28;20148;-73
2021/09/03 01:35:29;;;;;;;7.55;5.45;;;;;;;22.39;41.51;101844.56;5031113;28;20136;-73
2021/09/03 01:37:55;;;;;;;7.53;5.35;;;;;;;22.37;42.10;101840.19;5032093;28;20080;-73
2021/09/03 01:40:22;;;;;;;8.25;5.15;;;;;;;22.37;41.76;101842.97;5011189;28;20133;-73
2021/09/03 01:42:49;;;;;;;9.45;5.55;;;;;;;22.34;42.22;101844.16;5012574;28;20487;-73
2021/09/03 01:45:15;;;;;;;8.90;6.10;;;;;;;22.32;42.07;101840.66;5012519;28;20049;-73
2021/09/03 01:47:42;;;;;;;8.38;5.80;;;;;;;22.30;42.24;101839.09;5012073;28;20085;-73
2021/09/03 01:50:09;;;;;;;9.02;5.88;;;;;;;22.27;42.26;101837.50;5012514;28;20081;-73
2021/09/03 01:52:35;;;;;;;7.78;5.68;;;;;;;22.23;42.47;101833.31;5002460;28;20085;-73
2021/09/03 01:55:03;;;;;;;7.35;5.28;;;;;;;22.22;42.40;101833.47;5007441;28;20099;-73
2021/09/03 01:57:30;;;;;;;8.45;5.13;;;;;;;22.20;42.33;101825.31;5011964;28;20054;-73
2021/09/03 01:59:56;;;;;;;7.10;5.10;;;;;;;22.18;42.56;101827.34;5011896;28;20129;-73
2021/09/03 02:02:23;;;;;;;8.65;5.70;;;;;;;22.17;42.13;101820.06;5012275;28;20137;-73
2021/09/03 02:04:50;;;;;;;7.88;5.03;;;;;;;22.16;42.36;101826.63;5017895;28;20053;-73
2021/09/03 02:07:16;;;;;;;8.27;5.65;;;;;;;22.16;42.62;101818.31;5014131;28;20097;-73
2021/09/03 02:09:43;;;;;;;9.05;5.22;;;;;;;22.16;42.19;101820.22;5011722;28;20045;-73
2021/09/03 02:12:12;;;;;;;8.32;5.47;;;;;;;22.16;42.28;101822.97;5011914;28;20050;-73
2021/09/03 02:14:44;;;;;;;6.13;4.70;;;;;;;22.16;42.01;101818.31;5011501;28;20104;-73
2021/09/03 02:17:11;;;;;;;7.13;5.43;;;;;;;22.15;42.15;101813.84;5010933;28;20556;-73
2021/09/03 02:19:38;;;;;;;7.45;5.18;;;;;;;22.14;42.24;101812.09;5010424;28;20611;-73
2021/09/03 02:22:05;;;;;;;7.00;5.00;;;;;;;22.11;42.07;101812.41;5026946;28;20088;-73
2021/09/03 02:24:31;;;;;;;8.10;5.72;;;;;;;22.13;42.29;101813.13;5011988;28;20077;-73
2021/09/03 02:26:58;;;;;;;7.47;5.00;;;;;;;22.11;42.10;101808.75;5009817;28;20408;-73
2021/09/03 02:29:25;;;;;;;6.70;5.15;;;;;;;22.09;42.06;101814.44;5011045;28;20082;-73
2021/09/03 02:31:54;;;;;;;8.73;5.47;;;;;;;22.08;42.28;101809.94;5011052;28;20711;-73
2021/09/03 02:34:22;;;;;;;9.05;5.43;;;;;;;22.06;42.63;101802.84;5012781;28;20042;-73
2021/09/03 02:36:49;;;;;;;8.43;5.68;;;;;;;22.05;42.55;101806.63;5032876;28;20107;-72
2021/09/03 02:39:16;;;;;;;9.43;5.40;;;;;;;22.01;42.22;101806.91;5031738;28;20053;-73
2021/09/03 02:41:43;;;;;;;7.95;5.25;;;;;;;21.96;42.30;101800.06;5057013;28;20187;-73
2021/09/03 02:44:10;;;;;;;8.43;5.30;;;;;;;21.92;42.14;101801.41;5030419;28;20052;-72
2021/09/03 02:46:37;;;;;;;7.80;5.32;;;;;;;21.89;42.56;101801.72;5010105;28;20136;-72
2021/09/03 02:49:04;;;;;;;8.10;5.00;;;;;;;21.87;42.57;101803.75;5010497;28;20527;-73
2021/09/03 02:51:30;;;;;;;7.93;5.10;;;;;;;21.85;42.43;101801.13;5010253;28;20554;-72
2021/09/03 02:53:57;;;;;;;7.10;4.75;;;;;;;21.83;42.49;101791.25;5010116;28;20132;-73
2021/09/03 02:56:24;;;;;;;6.93;5.03;;;;;;;21.83;42.56;101794.00;5009562;28;20096;-73
2021/09/03 02:58:50;;;;;;;6.90;4.85;;;;;;;21.82;42.76;101795.06;5010406;28;20092;-72
2021/09/03 03:01:17;;;;;;;7.68;4.90;;;;;;;21.80;42.88;101789.69;5010001;28;20161;-73
2021/09/03 03:03:43;;;;;;;6.72;4.95;;;;;;;21.81;42.82;101790.56;5013983;28;20132;-73
2021/09/03 03:06:10;;;;;;;7.03;5.18;;;;;;;21.81;42.43;101785.91;5015620;28;20124;-72
2021/09/03 03:08:37;;;;;;;6.68;5.05;;;;;;;21.79;42.33;101796.22;5010171;28;20180;-72
2021/09/03 03:11:03;;;;;;;7.03;4.93;;;;;;;21.79;42.15;101781.53;5010023;28;20597;-73
2021/09/03 03:13:30;;;;;;;6.85;4.93;;;;;;;21.78;42.61;101785.31;5010543;28;20104;-72
2021/09/03 03:15:57;;;;;;;6.25;4.57;;;;;;;21.78;42.15;101782.56;5009140;28;20057;-73
2021/09/03 03:18:24;;;;;;;7.47;5.38;;;;;;;21.77;42.62;101780.81;5010039;28;20326;-73
2021/09/03 03:20:51;;;;;;;7.55;4.85;;;;;;;21.76;42.59;101777.16;5009696;28;20058;-73
2021/09/03 03:23:19;;;;;;;7.68;5.00;;;;;;;21.77;42.04;101778.03;5009842;28;20061;-72
2021/09/03 03:25:46;;;;;;;6.88;4.65;;;;;;;21.76;42.21;101776.28;5009221;28;20149;-72
2021/09/03 03:28:13;;;;;;;6.93;4.80;;;;;;;21.73;42.10;101769.19;5009943;28;20129;-72
2021/09/03 03:30:40;;;;;;;7.90;4.93;;;;;;;21.72;41.93;101766.59;5009481;28;20088;-72
2021/09/03 03:33:07;;;;;;;8.02;5.28;;;;;;;21.70;42.29;101765.84;5008358;28;20053;-72
2021/09/03 03:35:33;;;;;;;7.80;5.28;;;;;;;21.70;41.91;101771.38;5025690;28;20116;-73
2021/09/03 03:38:00;;;;;;;6.85;4.63;;;;;;;21.67;42.06;101763.38;5028672;28;20136;-72
2021/09/03 03:40:27;;;;;;;9.30;5.25;;;;;;;21.66;42.21;101761.69;5026084;28;20042;-72
2021/09/03 03:42:53;;;;;;;8.15;5.07;;;;;;;21.64;42.41;101762.69;5009740;28;20139;-72
2021/09/03 03:45:20;;;;;;;7.43;4.28;;;;;;;21.63;42.04;101757.31;5009555;28;20081;-73
2021/09/03 03:47:47;;;;;;;6.78;4.95;;;;;;;21.61;42.08;101768.50;5006974;28;20054;-72
2021/09/03 03:50:13;;;;;;;6.68;4.78;;;;;;;21.59;41.96;101755.88;5009306;28;20794;-72
2021/09/03 03:52:40;;;;;;;6.70;4.68;;;;;;;21.59;41.96;101753.09;4998741;28;20145;-73
2021/09/03 03:55:08;;;;;;;7.78;4.63;;;;;;;21.56;42.43;101761.72;4990062;28;20062;-72
2021/09/03 03:57:34;;;;;;;6.63;4.85;;;;;;;21.53;42.30;101751.81;5007855;28;20544;-72
2021/09/03 04:00:02;;;;;;;7.57;5.10;;;;;;;21.53;42.11;101762.88;5009195;28;20077;-73
2021/09/03 04:02:29;;;;;;;9.45;5.25;;;;;;;21.51;42.09;101753.00;5008987;28;20123;-72
2021/09/03 04:04:56;;;;;;;7.07;4.88;;;;;;;21.50;42.14;101754.00;5016687;28;20566;-73
2021/09/03 04:07:22;;;;;;;7.53;5.03;;;;;;;21.48;42.22;101758.84;5010529;28;20100;-73
2021/09/03 04:09:49;;;;;;;7.55;5.03;;;;;;;21.46;41.86;101756.22;5009087;28;20108;-73
2021/09/03 04:12:15;;;;;;;7.72;5.45;;;;;;;21.44;41.98;101755.50;5009477;28;20058;-73
2021/09/03 04:14:42;;;;;;;7.40;4.55;;;;;;;21.43;42.38;101752.88;5009190;28;20092;-73
2021/09/03 04:17:08;;;;;;;6.78;4.60;;;;;;;21.40;42.39;101750.44;5008640;28;20104;-73
2021/09/03 04:19:35;;;;;;;7.57;5.22;;;;;;;21.39;42.60;101754.22;5009439;28;20137;-73
2021/09/03 04:22:02;;;;;;;7.50;4.78;;;;;;;21.37;42.16;101745.19;5009269;28;20460;-73
2021/09/03 04:24:29;;;;;;;6.50;4.28;;;;;;;21.36;42.36;101752.63;5009363;28;20094;-73
2021/09/03 04:26:56;;;;;;;6.55;4.60;;;;;;;21.34;42.08;101740.84;5008410;28;20081;-73
2021/09/03 04:29:23;;;;;;;7.05;4.55;;;;;;;21.33;42.43;101746.53;5009319;28;20054;-72
2021/09/03 04:31:50;;;;;;;7.07;4.78;;;;;;;21.31;42.36;101743.03;5009280;28;20049;-73
2021/09/03 04:34:17;;;;;;;7.30;5.63;;;;;;;21.29;42.45;101748.72;5017152;28;20055;-73
2021/09/03 04:36:43;;;;;;;8.98;5.70;;;;;;;21.27;42.51;101750.75;5021396;28;20801;-73
2021/09/03 04:39:10;;;;;;;8.27;5.43;;;;;;;21.24;42.02;101743.66;5008829;28;20505;-73
2021/09/03 04:41:36;;;;;;;8.38;5.60;;;;;;;21.21;42.33;101749.47;5009140;28;20042;-73
2021/09/03 04:44:03;;;;;;;7.80;5.13;;;;;;;21.19;42.54;101754.25;5011972;28;20109;-73
2021/09/03 04:46:30;;;;;;;8.45;5.40;;;;;;;21.18;42.54;101751.63;5012007;28;20104;-73
2021/09/03 04:48:57;;;;;;;7.05;4.90;;;;;;;21.15;42.68;101758.31;5012445;28;20144;-73
2021/09/03 04:51:23;;;;;;;7.20;5.30;;;;;;;21.13;42.25;101760.34;5011591;28;20138;-72
2021/09/03 04:53:50;;;;;;;8.15;5.35;;;;;;;21.12;42.71;101760.50;4992696;28;20419;-73
2021/09/03 04:56:16;;;;;;;6.95;5.03;;;;;;;21.10;42.27;101755.13;4992886;28;20386;-73
2021/09/03 04:58:43;;;;;;;8.32;5.15;;;;;;;21.08;42.34;101751.66;5012649;28;20722;-73
2021/09/03 05:01:10;;;;;;;6.78;5.07;;;;;;;21.07;42.73;101749.03;5012509;28;20437;-73
2021/09/03 05:03:37;;;;;;;6.57;4.68;;;;;;;21.05;42.81;101751.94;5015042;28;20041;-72
2021/09/03 05:06:03;;;;;;;7.78;4.88;;;;;;;21.04;42.16;101741.03;5024596;28;20493;-72
2021/09/03 05:08:30;;;;;;;7.65;5.15;;;;;;;21.03;42.65;101742.06;5011173;28;20057;-72
2021/09/03 05:10:56;;;;;;;6.55;4.57;;;;;;;21.02;42.44;101740.31;5012357;28;20050;-72
2021/09/03 05:13:23;;;;;;;8.18;5.32;;;;;;;21.02;42.51;101748.59;5012248;28;20049;-72
2021/09/03 05:15:51;;;;;;;6.93;4.93;;;;;;;21.02;42.88;101740.31;5011732;28;20050;-72
2021/09/03 05:18:18;;;;;;;8.05;4.95;;;;;;;21.00;42.88;101747.91;5012206;28;20081;-73
2021/09/03 05:20:45;;;;;;;6.65;4.65;;;;;;;20.99;42.41;101744.25;5011846;28;20574;-72
2021/09/03 05:23:11;;;;;;;7.35;5.35;;;;;;;20.98;42.45;101749.94;5012567;28;20073;-72
2021/09/03 05:25:38;;;;;;;6.78;4.82;;;;;;;20.97;42.59;101748.19;5011619;28;20046;-73
2021/09/03 05:28:05;;;;;;;8.02;4.93;;;;;;;20.98;42.47;101750.81;5012189;28;20334;-72
2021/09/03 05:30:32;;;;;;;7.43;4.93;;;;;;;20.97;42.71;101753.69;5012013;28;20126;-73
2021/09/03 05:32:58;;;;;;;6.90;4.95;;;;;;;20.97;42.80;101753.69;5011616;28;20042;-72
2021/09/03 05:35:27;;;;;;;7.13;5.10;;;;;;;20.97;43.04;101748.19;5029341;28;20132;-73
2021/09/03 05:37:54;;;;;;;6.90;4.75;;;;;;;20.95;42.94;101750.22;5022990;28;20049;-72
2021/09/03 05:40:22;;;;;;;7.45;4.72;;;;;;;20.95;42.54;101751.09;5011729;28;20137;-72
2021/09/03 05:42:50;;;;;;;6.82;4.47;;;;;;;20.94;43.26;101756.75;5012076;28;20107;-72
2021/09/03 05:45:17;;;;;;;6.70;4.47;;;;;;;20.92;42.93;101756.88;5011806;28;20473;-72
2021/09/03 05:47:45;;;;;;;6.40;4.65;;;;;;;20.94;43.29;101762.28;5023508;28;20186;-73
2021/09/03 05:50:13;;;;;;;6.07;4.55;;;;;;;20.94;43.06;101754.88;4992613;28;20125;-72
2021/09/03 05:52:40;;;;;;;6.07;4.47;;;;;;;20.92;43.25;101754.13;5001993;28;20080;-72
2021/09/03 05:55:07;;;;;;;7.07;4.22;;;;;;;20.94;43.32;101763.13;5011696;28;20054;-72
2021/09/03 05:57:34;;;;;;;7.03;4.47;;;;;;;20.93;42.89;101761.41;5011000;28;20046;-72
2021/09/03 06:00:00;;;;;;;7.07;4.90;;;;;;;20.95;42.90;101759.38;5011421;28;20054;-73
2021/09/03 06:02:27;;;;;;;6.93;4.60;;;;;;;20.95;43.38;101762.13;5011522;28;20454;-73
2021/09/03 06:04:54;;;;;;;6.35;4.55;;;;;;;20.97;43.65;101768.38;5024444;28;20115;-72
2021/09/03 06:07:20;;;;;;;7.13;4.75;;;;;;;20.98;43.24;101764.59;5013314;28;20049;-73
2021/09/03 06:09:47;;;;;;;7.43;5.10;;;;;;;21.00;43.58;101764.47;5010893;28;20084;-72
2021/09/03 06:12:14;;;;;;;7.05;4.65;;;;;;;21.00;43.36;101758.94;5011052;28;20080;-72
2021/09/03 06:14:41;;;;;;;6.22;4.35;;;;;;;21.01;43.98;101756.00;5011283;28;20111;-73
2021/09/03 06:17:07;;;;;;;7.90;4.95;;;;;;;21.01;43.85;101753.25;5009946;28;20096;-73
2021/09/03 06:19:34;;;;;;;6.95;4.82;;;;;;;21.03;44.07;101755.88;5009282;28;20077;-73
2021/09/03 06:22:01;;;;;;;6.00;4.55;;;;;;;21.04;44.14;101749.31;5011675;28;20050;-72
2021/09/03 06:24:28;;;;;;;6.45;4.57;;;;;;;21.05;43.68;101745.56;5011617;28;20096;-72
2021/09/03 06:26:59;;;;;;;7.82;4.90;;;;;;;21.08;44.12;101751.66;5011100;28;20452;-73
2021/09/03 06:29:39;;;;;;;6.65;4.43;;;;;;;21.08;44.32;101751.66;5011906;28;20199;-73
2021/09/03 06:32:07;;;;;;;7.72;5.75;;;;;;;21.10;44.44;101748.72;5010518;28;20736;-73
2021/09/03 06:34:36;;;;;;;9.60;5.30;;;;;;;21.13;44.52;101748.44;5022353;28;20081;-73
2021/09/03 06:37:03;;;;;;;7.75;5.35;;;;;;;21.13;44.36;101748.44;5030755;28;20053;-73
2021/09/03 06:39:30;;;;;;;7.07;5.05;;;;;;;21.14;44.52;101753.81;5026302;28;20042;-73
2021/09/03 06:41:56;;;;;;;7.70;4.95;;;;;;;21.15;44.21;101751.94;5011304;28;20049;-73
2021/09/03 06:44:23;;;;;;;6.40;4.68;;;;;;;21.17;44.31;101750.78;5011575;28;20069;-71
2021/09/03 06:46:50;;;;;;;7.82;5.30;;;;;;;21.20;44.21;101757.91;5010887;28;20065;-75
2021/09/03 06:49:16;;;;;;;8.43;5.95;;;;;;;21.22;44.31;101753.09;5010921;28;20046;-76
2021/09/03 06:51:43;;;;;;;9.32;6.07;;;;;;;21.24;44.90;101751.94;5012011;28;20046;-77
2021/09/03 06:54:09;;;;;;;7.88;5.63;;;;;;;21.28;44.91;101763.53;5011121;28;20069;-77
2021/09/03 06:56:36;;;;;;;9.63;5.95;;;;;;;21.31;45.15;101757.72;5011849;28;20137;-77
2021/09/03 06:59:05;;;;;;;8.63;6.20;;;;;;;21.37;45.42;101761.78;5008981;28;20092;-72
2021/09/03 07:01:32;;;;;;;9.68;6.25;;;;;;;21.44;46.34;101765.66;5013387;28;20116;-72
2021/09/03 07:03:59;;;;;;;8.57;6.25;;;;;;;21.52;46.64;101758.38;5012247;28;20481;-72
2021/09/03 07:06:26;;;;;;;7.90;5.78;;;;;;;21.65;46.83;101749.75;5011868;28;20497;-72
2021/09/03 07:08:53;;;;;;;10.05;7.18;;;;;;;21.78;47.13;101747.50;5019518;28;20046;-72
2021/09/03 07:11:20;;;;;;;9.52;6.72;;;;;;;21.95;47.59;101751.31;5009373;28;20046;-72
2021/09/03 07:13:46;;;;;;;9.82;6.65;;;;;;;22.12;47.58;101753.28;5007927;28;20068;-73
2021/09/03 07:16:13;;;;;;;9.48;6.72;;;;;;;22.29;47.80;101749.69;5007827;28;20076;-73
2021/09/03 07:18:39;;;;;;;10.23;6.90;;;;;;;22.49;47.75;101743.97;5007730;28;20095;-73
2021/09/03 07:21:06;;;;;;;10.18;7.13;;;;;;;22.67;47.71;101748.47;5009684;28;20111;-73
2021/09/03 07:23:33;;;;;;;10.48;7.72;;;;;;;22.86;46.74;101744.69;5008612;28;20156;-72
2021/09/03 07:26:03;;;;;;;10.38;6.90;;;;;;;23.04;46.46;101747.44;5007688;28;20058;-72
2021/09/03 07:28:30;;;;;;;9.38;6.65;;;;;;;23.18;46.24;101744.06;5018739;28;20053;-73
2021/09/03 07:30:57;;;;;;;9.60;6.95;;;;;;;23.32;45.92;101745.38;5040096;28;20057;-73
2021/09/03 07:33:23;;;;;;;9.43;7.05;;;;;;;23.46;45.29;101751.19;5028082;28;20053;-72
2021/09/03 07:35:50;;;;;;;10.57;6.70;;;;;;;23.59;45.41;101741.56;5012504;28;20050;-72
2021/09/03 07:38:22;;;;;;;9.70;6.63;;;;;;;23.67;45.33;101741.59;5008285;28;20515;-73
2021/09/03 07:40:49;;;;;;;9.02;7.13;;;;;;;23.80;44.56;101744.81;5009654;28;20404;-73
2021/09/03 07:43:16;;;;;;;9.48;7.03;;;;;;;23.88;44.39;101745.69;5008806;28;20115;-73
2021/09/03 07:45:43;;;;;;;10.25;7.18;;;;;;;23.97;44.35;101749.34;5008677;28;20050;-72
2021/09/03 07:48:10;;;;;;;10.30;7.10;;;;;;;24.04;43.97;101744.91;5008227;28;20057;-72
2021/09/03 07:50:37;;;;;;;9.50;6.53;;;;;;;24.11;44.16;101745.09;5009250;28;20080;-73
2021/09/03 07:53:05;;;;;;;10.48;6.75;;;;;;;24.19;43.48;101742.34;4994612;28;20436;-73
2021/09/03 07:55:41;;;;;;;9.25;6.57;;;;;;;24.24;43.67;101737.16;5000428;28;20132;-73
2021/09/03 07:58:08;;;;;;;8.05;6.32;;;;;;;24.30;43.97;101733.69;5014628;28;20045;-73
2021/09/03 08:00:36;;;;;;;7.78;6.30;;;;;;;24.38;43.43;101730.94;5017667;28;20417;-73
2021/09/03 08:03:03;;;;;;;8.57;6.05;;;;;;;24.42;43.55;101737.03;5008444;28;20097;-73
2021/09/03 08:05:30;;;;;;;9.35;6.75;;;;;;;24.48;43.65;101737.19;5009206;28;20160;-73
2021/09/03 08:07:57;;;;;;;10.00;6.47;;;;;;;24.51;43.36;101730.44;5007064;28;20054;-73
2021/09/03 08:10:24;;;;;;;9.73;6.60;;;;;;;24.56;43.35;101739.13;5009376;28;20096;-73
2021/09/03 08:12:51;;;;;;;9.38;6.82;;;;;;;24.59;43.10;101739.66;5007736;28;20053;-73
2021/09/03 08:15:17;;;;;;;9.35;6.47;;;;;;;24.63;43.01;101741.03;5008624;28;20401;-73
2021/09/03 08:17:44;;;;;;;9.30;6.35;;;;;;;24.69;42.98;101733.06;5009546;28;20073;-73
2021/09/03 08:20:13;;;;;;;7.75;5.53;;;;;;;24.74;43.34;101738.97;5012709;28;20045;-73
2021/09/03 08:22:42;;;;;;;8.93;6.57;;;;;;;24.78;42.83;101735.69;5011994;28;20072;-73
2021/09/03 08:25:09;;;;;;;8.30;6.03;;;;;;;24.83;43.23;101737.91;5012861;28;20042;-74
2021/09/03 08:27:36;;;;;;;8.18;6.50;;;;;;;24.85;43.04;101745.03;5012477;28;20079;-74
2021/09/03 08:30:04;;;;;;;8.27;5.88;;;;;;;24.91;42.79;101737.94;5029973;28;20468;-73
2021/09/03 08:32:30;;;;;;;8.23;5.75;;;;;;;24.95;42.62;101742.97;5011796;28;20049;-74
2021/09/03 08:34:58;;;;;;;9.30;5.75;;;;;;;25.01;43.02;101742.28;5012843;28;20049;-73
2021/09/03 08:37:25;;;;;;;9.75;6.40;;;;;;;25.06;42.75;101738.97;5010715;28;20084;-74
2021/09/03 08:39:51;;;;;;;10.20;6.75;;;;;;;25.11;42.95;101739.34;5012972;28;20108;-74
2021/09/03 08:42:18;;;;;;;9.48;6.13;;;;;;;25.17;42.29;101738.63;5011486;28;20054;-74
2021/09/03 08:44:44;;;;;;;8.95;6.65;;;;;;;25.23;42.77;101739.81;5012628;28;20081;-73
2021/09/03 08:47:12;;;;;;;8.93;5.57;;;;;;;25.27;42.78;101733.75;5010666;28;20104;-73
2021/09/03 08:49:38;;;;;;;8.70;6.07;;;;;;;25.34;42.74;101745.00;5011469;28;20049;-74
2021/09/03 08:52:05;;;;;;;9.52;6.60;;;;;;;25.41;42.30;101740.47;5006809;28;20082;-74
2021/09/03 08:54:32;;;;;;;8.57;6.43;;;;;;;25.47;42.49;101741.66;4990213;28;20062;-75
2021/09/03 08:56:59;;;;;;;9.90;6.72;;;;;;;25.54;42.54;101745.47;5005681;28;20504;-74
2021/09/03 08:59:25;;;;;;;9.25;7.13;;;;;;;25.60;42.43;101742.03;5028538;28;20266;-74
2021/09/03 09:02:12;;;;;;;9.15;6.82;;;;;;;25.68;42.19;101742.88;5018845;28;20137;-73
2021/09/03 09:04:41;;;;;;;9.23;6.53;;;;;;;25.74;42.36;101731.00;5009281;28;20054;-74
2021/09/03 09:07:08;;;;;;;11.45;6.93;;;;;;;25.83;42.43;101740.19;5011414;28;20057;-74
2021/09/03 09:09:37;;;;;;;8.65;6.25;;;;;;;25.92;42.32;101733.53;5010908;28;20081;-74
2021/09/03 09:12:14;;;;;;;9.13;6.47;;;;;;;26.03;41.36;101730.34;5010280;28;20056;-74
2021/09/03 09:15:03;;;;;;;8.73;6.25;;;;;;;26.09;41.24;101728.75;5011210;28;20145;-74
2021/09/03 09:17:34;;;;;;;8.82;6.20;;;;;;;26.17;41.85;101731.50;5009988;28;20262;-74
2021/09/03 09:20:03;;;;;;;9.88;6.50;;;;;;;26.23;41.80;101730.75;5010610;28;20132;-73
2021/09/03 09:22:52;;;;;;;8.77;6.10;;;;;;;26.33;41.43;101736.13;5011355;28;20593;-74
2021/09/03 09:25:27;;;;;;;9.02;6.05;;;;;;;26.43;41.14;101731.19;5011850;28;20084;-74
2021/09/03 09:27:55;;;;;;;9.27;5.88;;;;;;;26.48;41.51;101729.56;5015098;28;20081;-74
2021/09/03 09:30:25;;;;;;;8.43;5.45;;;;;;;26.59;41.63;101725.50;5031065;28;20083;-74
2021/09/03 09:33:12;;;;;;;10.18;5.18;;;;;;;26.69;41.44;101730.78;5013335;28;20441;-73
2021/09/03 09:35:49;;;;;;;8.73;5.47;;;;;;;26.80;40.79;101728.44;5011129;28;20133;-74
2021/09/03 09:38:18;;;;;;;8.55;6.10;;;;;;;26.89;40.67;101718.09;5010588;28;20517;-74
2021/09/03 09:40:59;;;;;;;8.15;5.70;;;;;;;26.99;40.85;101717.88;5011322;28;20136;-74
2021/09/03 09:43:38;;;;;;;7.68;5.80;;;;;;;27.08;39.71;101711.16;5010205;28;20081;-74
2021/09/03 09:46:07;;;;;;;7.25;5.40;;;;;;;27.17;40.24;101719.25;5010971;28;20049;-74
2021/09/03 09:48:54;;;;;;;6.95;5.00;;;;;;;27.25;39.86;101715.50;5010600;28;20065;-74
2021/09/03 09:51:32;;;;;;;8.40;4.90;;;;;;;27.36;39.87;101717.81;5011102;28;20111;-74
2021/09/03 09:54:05;;;;;;;7.28;5.43;;;;;;;27.46;39.58;101712.81;4990894;28;20108;-74
2021/09/03 09:56:35;;;;;;;6.53;4.97;;;;;;;27.52;39.57;101703.66;4993787;28;20115;-74
2021/09/03 09:59:03;;;;;;;7.53;4.65;;;;;;;27.60;39.96;101700.81;5024331;28;20089;-74
2021/09/03 10:01:32;;;;;;;6.80;4.82;;;;;;;27.71;39.46;101706.97;5027543;28;20049;-74
2021/09/03 10:04:03;;;;;;;8.18;5.65;;;;;;;27.82;39.11;101700.91;5009837;28;20061;-73
2021/09/03 10:06:31;;;;;;;6.10;4.88;;;;;;;27.86;39.12;101705.88;5009099;28;20053;-73
2021/09/03 10:08:59;;;;;;;7.75;4.95;;;;;;;27.95;39.02;101701.06;5012916;28;20562;-73
2021/09/03 10:11:26;;;;;;;8.10;5.22;;;;;;;28.04;38.52;101705.47;5013179;28;20088;-73
2021/09/03 10:13:54;;;;;;;7.72;5.00;;;;;;;28.12;38.51;101693.31;4989638;28;20116;-73
2021/09/03 10:16:21;;;;;;;6.47;4.95;;;;;;;28.19;38.35;101691.50;4990689;28;20050;-73
2021/09/03 10:18:49;;;;;;;7.30;5.32;;;;;;;28.29;38.31;101694.84;5008372;28;20049;-73
2021/09/03 10:21:24;;;;;;;6.35;5.07;;;;;;;28.38;37.71;101683.34;5011083;28;20825;-74
2021/09/03 10:24:11;;;;;;;7.90;5.40;;;;;;;28.46;37.35;101685.13;5009876;28;20587;-74
2021/09/03 10:26:44;;;;;;;7.82;5.38;;;;;;;28.52;36.50;101680.66;5010153;28;20046;-73
2021/09/03 10:29:18;;;;;;;6.05;4.63;;;;;;;28.58;36.22;101680.72;5022064;28;20081;-74
2021/09/03 10:32:07;;;;;;;6.75;5.20;;;;;;;28.59;36.41;101682.47;5030600;28;20093;-74
2021/09/03 10:34:40;;;;;;;6.43;4.95;;;;;;;28.65;35.67;101680.81;4989933;28;20082;-74
2021/09/03 10:37:16;;;;;;;7.18;5.25;;;;;;;28.67;35.71;101676.72;4992112;28;20109;-74
2021/09/03 10:39:52;;;;;;;6.05;4.40;;;;;;;28.68;35.76;101667.28;5007670;28;20421;-74
2021/09/03 10:42:36;;;;;;;7.13;4.90;;;;;;;28.69;36.05;101668.16;5008478;28;20081;-74
2021/09/03 10:47:33;;;;;;;6.43;4.70;;;;;;;28.77;36.47;101676.41;5008613;28;20133;-74
2021/09/03 10:50:34;;;;;;;5.63;4.05;;;;;;;28.84;35.70;101666.16;5010304;28;20128;-74
2021/09/03 10:53:04;;;;;;;8.40;5.25;;;;;;;28.94;35.44;101660.22;5008676;28;20069;-74
2021/09/03 10:56:01;;;;;;;7.10;4.72;;;;;;;28.99;35.17;101664.13;5008608;28;20396;-74
2021/09/03 10:58:37;;;;;;;6.20;3.95;;;;;;;29.08;35.29;101648.91;5019086;28;20053;-74
2021/09/03 11:01:13;;;;;;;7.20;4.38;;;;;;;29.15;34.23;101652.63;5029952;28;20068;-74
2021/09/03 11:03:46;;;;;;;7.00;4.70;;;;;;;29.22;34.35;101646.22;5017278;28;20054;-74
2021/09/03 11:06:16;;;;;;;5.20;4.13;;;;;;;29.27;34.44;101638.94;5009189;28;20099;-74
2021/09/03 11:08:45;;;;;;;6.80;4.40;;;;;;;29.32;34.45;101641.97;5008977;28;20053;-74
2021/09/03 11:11:27;;;;;;;5.38;4.18;;;;;;;29.39;34.18;101640.13;5008905;28;20149;-74
2021/09/03 11:13:57;;;;;;;5.57;4.20;;;;;;;29.44;34.04;101634.75;5009174;28;20057;-74
2021/09/03 11:16:33;;;;;;;5.38;3.95;;;;;;;29.55;32.66;101624.06;5009195;28;20337;-74
2021/09/03 11:19:11;;;;;;;6.97;4.65;;;;;;;29.60;32.97;101629.88;5008326;28;20061;-74
2021/09/03 11:21:46;;;;;;;7.95;4.70;;;;;;;29.60;33.21;101625.16;5025055;28;20328;-74
2021/09/03 11:24:16;;;;;;;5.80;4.15;;;;;;;29.62;33.02;101620.22;5009012;28;20513;-74
2021/09/03 11:26:43;;;;;;;5.97;3.90;;;;;;;29.62;33.04;101620.22;5009159;28;20328;-74
2021/09/03 11:29:20;;;;;;;6.38;4.28;;;;;;;29.67;32.58;101623.22;5022565;28;20519;-74
2021/09/03 11:32:06;;;;;;;6.47;4.38;;;;;;;29.69;32.24;101623.03;5029582;28;20082;-74